createdAt,value
2023-03-16T00:00:47.329Z,101125.66
2023-03-16T00:03:20.435Z,101121.88
2023-03-16T00:05:50.282Z,101132.28
2023-03-16T00:08:17.976Z,101127.41
2023-03-16T00:10:48.123Z,101123.56
2023-03-16T00:13:19.290Z,101134.16
2023-03-16T00:15:52.832Z,101123.47
2023-03-16T00:18:20.379Z,101114.94
2023-03-16T00:20:55.363Z,101105.00
2023-03-16T00:23:27.232Z,101107.25
2023-03-16T00:25:59.154Z,101106.53
2023-03-16T00:28:27.083Z,101117.44
2023-03-16T00:30:58.870Z,101114.88
2023-03-16T00:33:26.888Z,101115.28
2023-03-16T00:36:02.013Z,101108.06
2023-03-16T00:38:31.971Z,101109.50
2023-03-16T00:40:58.515Z,101105.75
2023-03-16T00:43:27.116Z,101108.16
2023-03-16T00:46:06.835Z,101100.50
2023-03-16T00:48:34.965Z,101100.78
2023-03-16T00:51:04.264Z,101103.31
2023-03-16T00:53:33.341Z,101099.28
2023-03-16T00:56:02.915Z,101102.56
2023-03-16T00:58:35.615Z,101101.63
2023-03-16T01:01:09.186Z,101095.09
2023-03-16T01:03:36.444Z,101097.22
2023-03-16T01:06:07.423Z,101088.94
2023-03-16T01:08:34.365Z,101089.31
2023-03-16T01:11:06.577Z,101096.41
2023-03-16T01:13:33.971Z,101090.00
2023-03-16T01:16:00.883Z,101089.78
2023-03-16T01:18:28.317Z,101085.25
2023-03-16T01:20:54.796Z,101084.84
2023-03-16T01:23:21.831Z,101084.06
2023-03-16T01:25:53.069Z,101098.19
2023-03-16T01:28:21.649Z,101098.00
2023-03-16T01:30:48.159Z,101094.94
2023-03-16T01:33:14.959Z,101086.22
2023-03-16T01:35:41.713Z,101070.56
2023-03-16T01:38:08.454Z,101072.31
2023-03-16T01:40:36.723Z,101071.56
2023-03-16T01:43:04.901Z,101062.19
2023-03-16T01:46:05.570Z,101038.31
2023-03-16T01:48:56.057Z,101045.72
2023-03-16T01:51:29.645Z,101040.25
2023-03-16T01:54:04.365Z,101032.25
2023-03-16T01:56:39.698Z,101021.72
2023-03-16T01:59:11.804Z,101024.09
2023-03-16T02:01:38.711Z,101023.66
2023-03-16T02:04:16.870Z,101036.78
2023-03-16T02:06:44.552Z,101022.59
2023-03-16T02:09:11.230Z,101012.66
2023-03-16T02:11:38.077Z,101008.38
2023-03-16T02:14:10.668Z,101000.22
2023-03-16T02:16:39.339Z,100992.13
2023-03-16T02:19:19.639Z,100989.00
2023-03-16T02:21:55.278Z,100989.38
2023-03-16T02:24:22.098Z,100985.31
2023-03-16T02:26:57.497Z,100989.38
2023-03-16T02:29:58.096Z,100982.84
2023-03-16T02:32:28.730Z,100976.59
2023-03-16T02:35:14.603Z,100970.34
2023-03-16T02:37:41.870Z,100968.88
2023-03-16T02:40:26.946Z,100974.25
2023-03-16T02:43:02.633Z,100973.94
2023-03-16T02:45:35.528Z,100976.13
2023-03-16T02:48:08.711Z,100973.78
2023-03-16T02:50:36.986Z,100982.50
2023-03-16T02:53:04.767Z,100968.19
2023-03-16T02:55:31.218Z,100975.53
2023-03-16T02:57:57.945Z,100970.78
2023-03-16T03:00:24.646Z,100969.91
2023-03-16T03:02:52.412Z,100963.66
2023-03-16T03:05:19.627Z,100959.78
2023-03-16T03:07:46.020Z,100957.13
2023-03-16T03:10:12.731Z,100965.88
2023-03-16T03:12:39.465Z,100964.59
2023-03-16T03:15:06.996Z,100964.75
2023-03-16T03:17:34.548Z,100964.97
2023-03-16T03:20:13.484Z,100950.78
2023-03-16T03:22:40.520Z,100956.47
2023-03-16T03:25:08.788Z,100952.22
2023-03-16T03:27:35.871Z,100944.69
2023-03-16T03:30:03.161Z,100936.16
2023-03-16T03:32:30.289Z,100935.41
2023-03-16T03:34:56.758Z,100930.63
2023-03-16T03:37:24.470Z,100931.66
2023-03-16T03:39:51.251Z,100939.84
2023-03-16T03:42:17.657Z,100931.69
2023-03-16T03:44:44.181Z,100929.38
2023-03-16T03:47:11.033Z,100938.25
2023-03-16T03:49:37.588Z,100935.50
2023-03-16T03:52:05.274Z,100936.03
2023-03-16T03:54:31.740Z,100935.13
2023-03-16T03:56:58.805Z,100945.22
2023-03-16T03:59:25.319Z,100938.97
2023-03-16T04:01:53.730Z,100942.84
2023-03-16T04:04:20.838Z,100936.72
2023-03-16T04:06:47.996Z,100942.13
2023-03-16T04:09:14.586Z,100937.16
2023-03-16T04:11:41.002Z,100934.47
2023-03-16T04:14:07.710Z,100938.78
2023-03-16T04:16:35.031Z,100937.25
2023-03-16T04:19:01.663Z,100938.00
2023-03-16T04:21:28.749Z,100936.34
2023-03-16T04:23:55.453Z,100936.00
2023-03-16T04:26:22.261Z,100929.50
2023-03-16T04:28:48.841Z,100928.66
2023-03-16T04:31:15.273Z,100927.66
2023-03-16T04:33:42.310Z,100924.09
2023-03-16T04:36:09.213Z,100926.25
2023-03-16T04:38:36.345Z,100917.31
2023-03-16T04:41:04.770Z,100913.66
2023-03-16T04:43:34.246Z,100912.03
2023-03-16T04:46:01.845Z,100909.00
2023-03-16T04:48:29.842Z,100907.94
2023-03-16T04:50:56.640Z,100901.75
2023-03-16T04:53:25.208Z,100899.22
2023-03-16T04:55:51.607Z,100895.34
2023-03-16T04:58:18.297Z,100899.00
2023-03-16T05:00:45.432Z,100889.63
2023-03-16T05:03:11.990Z,100891.78
2023-03-16T05:05:39.410Z,100882.94
2023-03-16T05:08:10.682Z,100891.75
2023-03-16T05:10:38.865Z,100885.59
2023-03-16T05:13:06.455Z,100878.88
2023-03-16T05:15:33.766Z,100875.50
2023-03-16T05:18:01.552Z,100881.81
2023-03-16T05:20:28.431Z,100875.41
2023-03-16T05:22:55.073Z,100884.56
2023-03-16T05:25:22.496Z,100876.00
2023-03-16T05:27:54.314Z,100882.84
2023-03-16T05:30:20.986Z,100881.00
2023-03-16T05:32:48.534Z,100888.09
2023-03-16T05:35:15.534Z,100887.91
2023-03-16T05:37:42.867Z,100887.91
2023-03-16T05:40:17.438Z,100892.28
2023-03-16T05:42:48.298Z,100892.47
2023-03-16T05:45:16.710Z,100886.16
2023-03-16T05:47:44.187Z,100890.47
2023-03-16T05:50:12.942Z,100889.25
2023-03-16T05:52:39.968Z,100887.41
2023-03-16T05:55:09.363Z,100885.59
2023-03-16T05:57:36.693Z,100885.47
2023-03-16T06:00:16.172Z,100887.28
2023-03-16T06:02:45.198Z,100890.25
2023-03-16T06:05:12.201Z,100890.66
2023-03-16T06:07:39.214Z,100895.00
2023-03-16T06:10:06.888Z,100894.31
2023-03-16T06:12:37.132Z,100892.38
2023-03-16T06:15:07.733Z,100894.69
2023-03-16T06:17:35.457Z,100887.38
2023-03-16T06:20:09.649Z,100894.47
2023-03-16T06:22:38.824Z,100893.56
2023-03-16T06:25:06.387Z,100893.03
2023-03-16T06:27:32.866Z,100901.22
2023-03-16T06:29:59.506Z,100886.31
2023-03-16T06:32:26.192Z,100895.22
2023-03-16T06:34:52.844Z,100896.59
2023-03-16T06:37:20.300Z,100892.03
2023-03-16T06:39:48.350Z,100903.75
2023-03-16T06:42:16.752Z,100906.72
2023-03-16T06:44:43.858Z,100895.47
2023-03-16T06:47:10.421Z,100900.91
2023-03-16T06:49:37.613Z,100896.59
2023-03-16T06:52:04.457Z,100897.97
2023-03-16T06:54:34.064Z,100906.34
2023-03-16T06:57:01.518Z,100901.66
2023-03-16T06:59:28.155Z,100904.00
2023-03-16T07:01:54.782Z,100897.75
2023-03-16T07:04:21.702Z,100908.19
2023-03-16T07:06:48.637Z,100910.31
2023-03-16T07:09:15.252Z,100899.66
2023-03-16T07:11:41.745Z,100912.81
2023-03-16T07:14:08.374Z,100908.28
2023-03-16T07:16:34.871Z,100904.88
2023-03-16T07:19:01.930Z,100907.81
2023-03-16T07:21:28.570Z,100912.53
2023-03-16T07:23:55.872Z,100914.81
2023-03-16T07:26:23.365Z,100923.09
2023-03-16T07:28:50.445Z,100920.47
2023-03-16T07:31:17.143Z,100912.31
2023-03-16T07:33:44.259Z,100909.56
2023-03-16T07:36:10.950Z,100910.19
2023-03-16T07:38:37.742Z,100908.28
2023-03-16T07:41:04.432Z,100904.34
2023-03-16T07:43:31.120Z,100903.59
2023-03-16T07:45:57.717Z,100907.81
2023-03-16T07:48:24.348Z,100912.50
2023-03-16T07:50:52.668Z,100903.91
2023-03-16T07:53:20.249Z,100912.38
2023-03-16T07:55:47.570Z,100907.91
2023-03-16T07:58:14.291Z,100906.88
2023-03-16T08:00:42.668Z,100917.16
2023-03-16T08:03:09.410Z,100906.22
2023-03-16T08:05:36.067Z,100904.97
2023-03-16T08:08:02.648Z,100904.59
2023-03-16T08:10:29.785Z,100892.19
2023-03-16T08:12:56.868Z,100887.97
2023-03-16T08:15:24.548Z,100891.25
2023-03-16T08:17:52.333Z,100889.09
2023-03-16T08:20:19.034Z,100884.50
2023-03-16T08:22:46.585Z,100882.06
2023-03-16T08:25:14.716Z,100873.84
2023-03-16T08:27:42.919Z,100873.19
2023-03-16T08:30:12.589Z,100875.88
2023-03-16T08:32:40.954Z,100881.66
2023-03-16T08:35:10.025Z,100885.38
2023-03-16T08:37:36.592Z,100891.00
2023-03-16T08:40:05.776Z,100890.34
2023-03-16T08:42:32.479Z,100891.53
2023-03-16T08:45:00.834Z,100887.22
2023-03-16T08:47:27.398Z,100889.25
2023-03-16T08:49:53.860Z,100889.41
2023-03-16T08:52:22.255Z,100896.50
2023-03-16T08:55:02.313Z,100881.31
2023-03-16T08:57:30.824Z,100881.38
2023-03-16T08:59:57.516Z,100884.72
2023-03-16T09:02:24.854Z,100881.84
2023-03-16T09:04:52.683Z,100864.25
2023-03-16T09:07:19.584Z,100867.72
2023-03-16T09:09:46.321Z,100868.88
2023-03-16T09:12:12.990Z,100874.19
2023-03-16T09:14:39.589Z,100873.72
2023-03-16T09:17:07.704Z,100880.34
2023-03-16T09:19:50.080Z,100870.53
2023-03-16T09:22:18.277Z,100880.69
2023-03-16T09:24:44.728Z,100880.34
2023-03-16T09:27:11.998Z,100873.06
2023-03-16T09:29:38.756Z,100862.56
2023-03-16T09:32:06.023Z,100856.88
2023-03-16T09:34:33.457Z,100867.44
2023-03-16T09:37:00.407Z,100862.69
2023-03-16T09:39:27.407Z,100860.81
2023-03-16T09:42:12.549Z,100862.09
2023-03-16T09:44:48.722Z,100862.03
2023-03-16T09:47:16.666Z,100869.69
2023-03-16T09:49:48.318Z,100869.66
2023-03-16T09:52:20.929Z,100864.53
2023-03-16T09:54:56.950Z,100854.22
2023-03-16T09:57:28.408Z,100849.16
2023-03-16T10:00:01.844Z,100842.88
2023-03-16T10:02:44.873Z,100842.63
2023-03-16T10:05:14.672Z,100839.38
2023-03-16T10:07:50.032Z,100838.91
2023-03-16T10:10:35.687Z,100834.81
2023-03-16T10:13:04.141Z,100837.88
2023-03-16T10:15:35.544Z,100826.75
2023-03-16T10:18:13.020Z,100828.44
2023-03-16T10:20:41.951Z,100829.44
2023-03-16T10:23:18.203Z,100829.53
2023-03-16T10:25:48.563Z,100829.72
2023-03-16T10:28:19.026Z,100835.47
2023-03-16T10:30:48.060Z,100827.53
2023-03-16T10:33:23.305Z,100818.59
2023-03-16T10:36:13.932Z,100816.59
2023-03-16T10:38:47.296Z,100818.94
2023-03-16T10:41:22.791Z,100813.75
2023-03-16T10:43:55.595Z,100803.06
2023-03-16T10:46:25.048Z,100810.41
2023-03-16T10:49:01.143Z,100810.41
2023-03-16T10:51:31.145Z,100803.38
2023-03-16T10:54:06.868Z,100800.53
2023-03-16T10:56:35.513Z,100811.53
2023-03-16T10:59:34.206Z,100797.63
2023-03-16T11:02:16.644Z,100795.75
2023-03-16T11:04:43.532Z,100782.81
2023-03-16T11:07:19.665Z,100781.47
2023-03-16T11:09:47.743Z,100775.13
2023-03-16T11:12:21.702Z,100771.59
2023-03-16T11:14:49.102Z,100758.22
2023-03-16T11:17:35.906Z,100764.78
2023-03-16T11:20:12.219Z,100765.16
2023-03-16T11:22:41.300Z,100765.47
2023-03-16T11:25:26.929Z,100758.53
2023-03-16T11:28:11.937Z,100755.81
2023-03-16T11:30:56.227Z,100742.16
2023-03-16T11:33:27.070Z,100745.81
2023-03-16T11:36:27.918Z,100749.66
2023-03-16T11:39:10.767Z,100732.13
2023-03-16T11:41:59.857Z,100727.16
2023-03-16T11:44:29.569Z,100715.31
2023-03-16T11:46:59.001Z,100702.22
2023-03-16T11:49:44.441Z,100707.94
2023-03-16T11:52:29.462Z,100704.06
2023-03-16T11:55:04.855Z,100698.34
2023-03-16T11:57:51.943Z,100688.81
2023-03-16T12:00:40.322Z,100691.13
2023-03-16T12:03:45.056Z,100677.28
2023-03-16T12:06:23.989Z,100685.06
2023-03-16T12:09:26.592Z,100684.91
2023-03-16T12:11:57.655Z,100686.78
2023-03-16T12:14:33.828Z,100679.66
2023-03-16T12:17:08.959Z,100674.78
2023-03-16T12:19:47.444Z,100674.00
2023-03-16T12:22:19.863Z,100665.47
2023-03-16T12:24:49.668Z,100675.97
2023-03-16T12:27:20.309Z,100665.09
2023-03-16T12:30:01.720Z,100648.66
2023-03-16T12:32:39.388Z,100645.41
2023-03-16T12:35:44.065Z,100641.63
2023-03-16T12:38:18.850Z,100632.63
2023-03-16T12:41:02.267Z,100631.81
2023-03-16T12:43:58.130Z,100628.94
2023-03-16T12:46:39.390Z,100630.50
2023-03-16T12:49:08.144Z,100627.66
2023-03-16T12:51:36.310Z,100620.19
2023-03-16T12:54:04.095Z,100615.94
2023-03-16T12:56:36.713Z,100613.69
2023-03-16T12:59:06.698Z,100604.63
2023-03-16T13:01:43.669Z,100600.88
2023-03-16T13:04:41.705Z,100598.91
2023-03-16T13:07:17.034Z,100597.69
2023-03-16T13:09:52.163Z,100589.94
2023-03-16T13:12:26.111Z,100585.38
2023-03-16T13:14:56.951Z,100587.44
2023-03-16T13:17:31.174Z,100582.53
2023-03-16T13:20:31.197Z,100571.97
2023-03-16T13:23:17.063Z,100562.50
2023-03-16T13:25:58.869Z,100550.25
2023-03-16T13:28:29.860Z,100558.25
2023-03-16T13:30:56.851Z,100552.31
2023-03-16T13:33:26.292Z,100549.88
2023-03-16T13:35:56.284Z,100557.63
2023-03-16T13:38:27.493Z,100546.09
2023-03-16T13:41:09.106Z,100545.38
2023-03-16T13:43:41.746Z,100542.06
2023-03-16T13:46:19.153Z,100532.78
2023-03-16T13:48:50.332Z,100526.31
2023-03-16T13:51:20.689Z,100516.53
2023-03-16T13:53:49.307Z,100515.78
2023-03-16T13:56:19.294Z,100511.81
2023-03-16T13:58:49.834Z,100514.63
2023-03-16T14:01:28.141Z,100511.41
2023-03-16T14:03:58.905Z,100509.72
2023-03-16T14:06:28.774Z,100516.97
2023-03-16T14:09:02.917Z,100499.72
2023-03-16T14:11:29.568Z,100492.13
2023-03-16T14:13:58.713Z,100487.00
2023-03-16T14:16:31.820Z,100490.22
2023-03-16T14:19:03.589Z,100481.22
2023-03-16T14:21:34.225Z,100467.91
2023-03-16T14:24:04.533Z,100473.50
2023-03-16T14:26:46.525Z,100456.94
2023-03-16T14:29:24.805Z,100441.75
2023-03-16T14:31:51.377Z,100443.94
2023-03-16T14:34:35.884Z,100436.53
2023-03-16T14:37:13.773Z,100436.47
2023-03-16T14:39:40.661Z,100436.63
2023-03-16T14:42:18.769Z,100425.91
2023-03-16T14:44:46.338Z,100434.56
2023-03-16T14:47:22.878Z,100424.28
2023-03-16T14:49:49.683Z,100429.91
2023-03-16T14:52:33.733Z,100431.63
2023-03-16T14:55:03.586Z,100428.16
2023-03-16T14:57:31.224Z,100421.84
2023-03-16T14:59:57.891Z,100427.53
2023-03-16T15:02:31.777Z,100426.25
2023-03-16T15:05:01.353Z,100424.38
2023-03-16T15:07:37.916Z,100415.44
2023-03-16T15:10:23.653Z,100414.97
2023-03-16T15:12:54.021Z,100413.44
2023-03-16T15:15:23.612Z,100417.88
2023-03-16T15:17:52.354Z,100413.50
2023-03-16T15:20:26.074Z,100401.81
2023-03-16T15:22:53.421Z,100408.38
2023-03-16T15:25:37.274Z,100411.56
2023-03-16T15:28:11.937Z,100407.16
2023-03-16T15:30:39.050Z,100407.13
2023-03-16T15:33:06.088Z,100398.66
2023-03-16T15:35:33.089Z,100393.53
2023-03-16T15:38:04.910Z,100392.28
2023-03-16T15:40:32.813Z,100400.63
2023-03-16T15:42:59.695Z,100391.72
2023-03-16T15:45:27.110Z,100395.97
2023-03-16T15:47:54.350Z,100397.22
2023-03-16T15:50:24.678Z,100394.09
2023-03-16T15:52:59.248Z,100401.38
2023-03-16T15:55:46.240Z,100396.78
2023-03-16T15:58:24.208Z,100393.66
2023-03-16T16:00:55.219Z,100380.34
2023-03-16T16:03:22.063Z,100399.44
2023-03-16T16:05:49.770Z,100396.50
2023-03-16T16:08:16.286Z,100391.25
2023-03-16T16:10:43.780Z,100386.03
2023-03-16T16:13:18.721Z,100386.22
2023-03-16T16:15:46.952Z,100378.16
2023-03-16T16:18:36.571Z,100377.44
2023-03-16T16:21:05.550Z,100364.66
2023-03-16T16:23:32.879Z,100369.75
2023-03-16T16:26:07.147Z,100376.50
2023-03-16T16:28:34.875Z,100367.66
2023-03-16T16:31:01.863Z,100358.81
2023-03-16T16:33:33.878Z,100362.78
2023-03-16T16:36:03.413Z,100364.66
2023-03-16T16:38:33.540Z,100368.56
2023-03-16T16:41:02.109Z,100360.53
2023-03-16T16:43:39.184Z,100370.03
2023-03-16T16:46:12.874Z,100368.81
2023-03-16T16:48:43.856Z,100374.06
2023-03-16T16:51:18.362Z,100368.06
2023-03-16T16:53:46.685Z,100365.00
2023-03-16T16:56:16.150Z,100374.16
2023-03-16T16:58:44.012Z,100359.28
2023-03-16T17:01:16.626Z,100351.81
2023-03-16T17:03:43.451Z,100352.84
2023-03-16T17:06:17.838Z,100354.31
2023-03-16T17:08:45.963Z,100353.69
2023-03-16T17:11:23.940Z,100348.88
2023-03-16T17:13:52.585Z,100349.53
2023-03-16T17:16:21.959Z,100338.38
2023-03-16T17:18:49.715Z,100343.03
2023-03-16T17:21:19.832Z,100341.50
2023-03-16T17:23:48.877Z,100339.88
2023-03-16T17:26:27.911Z,100349.28
2023-03-16T17:28:57.026Z,100344.44
2023-03-16T17:31:26.620Z,100341.75
2023-03-16T17:33:54.492Z,100348.34
2023-03-16T17:36:21.647Z,100347.97
2023-03-16T17:38:48.473Z,100342.13
2023-03-16T17:41:24.600Z,100344.09
2023-03-16T17:43:54.512Z,100348.91
2023-03-16T17:46:26.571Z,100349.66
2023-03-16T17:48:55.511Z,100352.28
2023-03-16T17:51:25.909Z,100347.84
2023-03-16T17:53:53.947Z,100345.91
2023-03-16T17:56:24.430Z,100344.75
2023-03-16T17:58:53.933Z,100343.88
2023-03-16T18:01:24.818Z,100337.88
2023-03-16T18:03:51.295Z,100336.53
2023-03-16T18:06:24.609Z,100330.59
2023-03-16T18:08:52.631Z,100336.47
2023-03-16T18:11:28.088Z,100340.28
2023-03-16T18:13:54.701Z,100352.53
2023-03-16T18:16:28.092Z,100360.00
2023-03-16T18:18:59.950Z,100359.00
2023-03-16T18:21:28.013Z,100359.91
2023-03-16T18:23:56.871Z,100347.13
2023-03-16T18:26:24.467Z,100357.47
2023-03-16T18:28:53.401Z,100348.78
2023-03-16T18:31:23.588Z,100356.22
2023-03-16T18:33:59.459Z,100348.22
2023-03-16T18:36:30.974Z,100351.91
2023-03-16T18:39:01.588Z,100352.84
2023-03-16T18:41:34.067Z,100357.72
2023-03-16T18:44:12.878Z,100355.56
2023-03-16T18:46:39.465Z,100357.84
2023-03-16T18:49:16.696Z,100353.94
2023-03-16T18:51:46.498Z,100360.22
2023-03-16T18:54:30.435Z,100363.66
2023-03-16T18:56:58.755Z,100354.75
2023-03-16T18:59:26.354Z,100362.03
2023-03-16T19:01:54.282Z,100356.38
2023-03-16T19:04:27.515Z,100357.53
2023-03-16T19:06:55.447Z,100366.59
2023-03-16T19:09:26.707Z,100353.13
2023-03-16T19:11:53.433Z,100355.34
2023-03-16T19:14:39.731Z,100358.94
2023-03-16T19:17:06.310Z,100357.81
2023-03-16T19:19:32.833Z,100354.75
2023-03-16T19:22:09.736Z,100353.28
2023-03-16T19:24:46.527Z,100351.06
2023-03-16T19:27:21.155Z,100357.59
2023-03-16T19:29:51.574Z,100356.94
2023-03-16T19:32:20.576Z,100349.19
2023-03-16T19:34:48.448Z,100352.97
2023-03-16T19:37:16.010Z,100353.91
2023-03-16T19:39:43.695Z,100344.72
2023-03-16T19:42:29.291Z,100339.88
2023-03-16T19:44:56.447Z,100343.81
2023-03-16T19:47:30.745Z,100340.41
2023-03-16T19:49:59.012Z,100330.47
2023-03-16T19:52:27.986Z,100332.09
2023-03-16T19:54:54.570Z,100328.84
2023-03-16T19:57:21.038Z,100335.88
2023-03-16T19:59:53.114Z,100337.19
2023-03-16T20:02:23.346Z,100327.97
2023-03-16T20:04:49.783Z,100339.22
2023-03-16T20:07:17.086Z,100317.09
2023-03-16T20:09:44.397Z,100317.28
2023-03-16T20:12:27.913Z,100318.09
2023-03-16T20:14:57.054Z,100317.66
2023-03-16T20:17:26.965Z,100312.84
2023-03-16T20:19:54.235Z,100316.41
2023-03-16T20:22:23.575Z,100315.97
2023-03-16T20:24:50.993Z,100304.28
2023-03-16T20:27:19.193Z,100306.75
2023-03-16T20:29:46.843Z,100307.06
2023-03-16T20:32:33.388Z,100293.59
2023-03-16T20:35:00.198Z,100286.66
2023-03-16T20:37:32.162Z,100295.03
2023-03-16T20:39:59.155Z,100287.56
2023-03-16T20:42:29.914Z,100289.06
2023-03-16T20:44:56.838Z,100286.41
2023-03-16T20:47:24.867Z,100283.56
2023-03-16T20:49:52.423Z,100295.81
2023-03-16T20:52:21.953Z,100296.97
2023-03-16T20:54:49.820Z,100289.34
2023-03-16T20:57:19.981Z,100288.84
2023-03-16T20:59:49.167Z,100283.13
2023-03-16T21:02:25.297Z,100281.63
2023-03-16T21:04:51.886Z,100282.94
2023-03-16T21:07:18.379Z,100281.81
2023-03-16T21:09:50.065Z,100279.41
2023-03-16T21:12:28.874Z,100271.75
2023-03-16T21:14:56.312Z,100277.91
2023-03-16T21:17:26.954Z,100271.38
2023-03-16T21:19:53.456Z,100261.00
2023-03-16T21:22:26.629Z,100250.91
2023-03-16T21:24:54.017Z,100260.44
2023-03-16T21:27:25.997Z,100253.78
2023-03-16T21:29:54.859Z,100259.13
2023-03-16T21:32:24.894Z,100247.59
2023-03-16T21:34:52.176Z,100248.59
2023-03-16T21:37:20.776Z,100241.28
2023-03-16T21:39:47.990Z,100235.88
2023-03-16T21:42:14.626Z,100230.59
2023-03-16T21:44:41.295Z,100235.72
2023-03-16T21:47:23.195Z,100225.22
2023-03-16T21:49:50.240Z,100222.16
2023-03-16T21:52:28.069Z,100220.47
2023-03-16T21:54:55.914Z,100209.13
2023-03-16T21:57:22.870Z,100199.63
2023-03-16T21:59:50.383Z,100210.06
2023-03-16T22:02:24.035Z,100207.59
2023-03-16T22:04:51.735Z,100212.50
2023-03-16T22:07:19.538Z,100200.81
2023-03-16T22:09:46.218Z,100203.59
2023-03-16T22:12:14.106Z,100188.94
2023-03-16T22:14:42.326Z,100195.59
2023-03-16T22:17:21.915Z,100202.50
2023-03-16T22:19:48.627Z,100197.66
2023-03-16T22:22:17.273Z,100197.28
2023-03-16T22:24:43.792Z,100177.56
2023-03-16T22:27:15.622Z,100189.22
2023-03-16T22:29:44.403Z,100196.78
2023-03-16T22:32:16.843Z,100199.63
2023-03-16T22:34:51.313Z,100206.13
2023-03-16T22:37:24.118Z,100197.06
2023-03-16T22:39:50.929Z,100186.06
2023-03-16T22:42:27.535Z,100181.13
2023-03-16T22:44:55.691Z,100177.50
2023-03-16T22:47:27.828Z,100173.47
2023-03-16T22:49:57.451Z,100165.28
2023-03-16T22:52:32.662Z,100153.41
2023-03-16T22:55:00.967Z,100148.69
2023-03-16T22:57:29.080Z,100148.91
2023-03-16T22:59:56.054Z,100149.38
2023-03-16T23:02:26.117Z,100153.13
2023-03-16T23:04:53.089Z,100155.28
2023-03-16T23:07:20.148Z,100155.47
2023-03-16T23:09:49.239Z,100172.16
2023-03-16T23:12:20.924Z,100172.75
2023-03-16T23:14:48.596Z,100177.16
2023-03-16T23:17:22.039Z,100164.28
2023-03-16T23:19:48.580Z,100156.00
2023-03-16T23:22:15.196Z,100151.25
2023-03-16T23:24:42.363Z,100163.03
2023-03-16T23:27:19.088Z,100166.69
2023-03-16T23:29:45.958Z,100165.94
2023-03-16T23:32:14.581Z,100149.97
2023-03-16T23:34:41.362Z,100152.94
2023-03-16T23:37:08.496Z,100150.47
2023-03-16T23:39:35.213Z,100152.13
2023-03-16T23:42:02.295Z,100145.19
2023-03-16T23:44:29.972Z,100149.56
2023-03-16T23:46:56.737Z,100139.56
2023-03-16T23:49:32.413Z,100129.94
2023-03-16T23:52:01.386Z,100131.75
2023-03-16T23:54:32.572Z,100136.78
2023-03-16T23:56:59.280Z,100145.50
2023-03-16T23:59:27.272Z,100131.38
